Time;durP1;ratioP1;P1;durP2;ratioP2;P2;SDS_P1;SDS_P2;PMS_P1;PMS_P2;Temp;Humidity;BMP_temperature;BMP_pressure;BME280_temperature;BME280_humidity;BME280_pressure;Samples;Min_cycle;Max_cycle;Signal;HPM_P1;HPM_P2
2022/05/04 00:01:23;;;;;;;4.65;2.53;;;;;;;;;;4232230;33;20098;-63
2022/05/04 00:32:46;;;;;;;4.47;2.35;;;;;;;;;;4714235;28;20117;-62
2022/05/04 00:35:12;;;;;;;3.65;2.40;;;;;;;;;;4203380;34;20091;-62
2022/05/04 00:37:38;;;;;;;5.65;2.30;;;;;;;;;;4199292;34;20710;-62
2022/05/04 00:40:04;;;;;;;2.58;2.28;;;;;;;;;;4203597;34;20120;-63
2022/05/04 00:42:30;;;;;;;4.68;2.00;;;;;;;;;;4203817;34;20699;-63
2022/05/04 00:44:56;;;;;;;4.25;2.00;;;;;;;;;;4203769;34;20254;-63
2022/05/04 00:47:22;;;;;;;5.20;2.20;;;;;;;;;;4203873;34;20109;-63
2022/05/04 00:49:49;;;;;;;5.78;2.08;;;;;;;;;;4203682;34;20102;-63
2022/05/04 00:52:15;;;;;;;2.55;2.25;;;;;;;;;;4190839;34;20124;-63
2022/05/04 00:54:47;;;;;;;6.87;2.20;;;;;;;;;;4213781;34;20141;-62
2022/05/04 00:57:14;;;;;;;5.97;2.45;;;;;;;;;;4190844;34;20101;-63
2022/05/04 00:59:41;;;;;;;2.72;2.17;;;;;;;;;;4203590;34;20112;-62
2022/05/04 01:02:07;;;;;;;2.92;2.00;;;;;;;;;;4203734;34;20094;-64
2022/05/04 01:04:34;;;;;;;4.78;2.15;;;;;;;;;;4205724;34;20109;-64
2022/05/04 01:07:00;;;;;;;5.00;2.72;;;;;;;;;;4192884;34;20113;-64
2022/05/04 01:09:26;;;;;;;5.85;2.25;;;;;;;;;;4192817;34;20104;-64
2022/05/04 01:11:52;;;;;;;7.53;2.40;;;;;;;;;;4205578;34;20105;-64
2022/05/04 01:14:18;;;;;;;3.08;2.17;;;;;;;;;;4205661;34;20129;-64
2022/05/04 01:16:46;;;;;;;3.40;2.42;;;;;;;;;;4215842;34;20185;-64
2022/05/04 01:19:12;;;;;;;6.20;2.53;;;;;;;;;;4205521;34;20470;-63
2022/05/04 01:21:38;;;;;;;2.92;2.22;;;;;;;;;;4205622;34;20529;-62
2022/05/04 01:24:05;;;;;;;4.03;2.15;;;;;;;;;;4215677;34;20129;-62
2022/05/04 01:26:31;;;;;;;3.97;2.12;;;;;;;;;;4205565;34;20101;-62
2022/05/04 01:28:57;;;;;;;4.65;2.37;;;;;;;;;;4205437;34;20106;-63
2022/05/04 01:31:23;;;;;;;3.50;2.35;;;;;;;;;;4205689;34;20124;-64
2022/05/04 01:33:49;;;;;;;3.70;2.00;;;;;;;;;;4205641;34;20286;-62
2022/05/04 01:36:15;;;;;;;6.62;2.67;;;;;;;;;;4205509;34;20098;-63
2022/05/04 01:38:41;;;;;;;4.28;3.15;;;;;;;;;;4205337;34;20116;-63
2022/05/04 01:42:02;;;;;;;7.03;2.28;;;;;;;;;;4205559;34;20129;-64
2022/05/04 01:43:53;;;;;;;;;;;;;;;;;;4205641;34;20221;-64
2022/05/04 01:46:19;;;;;;;5.80;2.30;;;;;;;;;;4205464;34;19997;-63
2022/05/04 01:48:45;;;;;;;5.05;2.40;;;;;;;;;;4205374;34;20133;-64
2022/05/04 01:51:11;;;;;;;5.53;2.40;;;;;;;;;;4205699;34;20443;-63
2022/05/04 01:53:37;;;;;;;3.15;2.03;;;;;;;;;;4205453;34;20224;-63
2022/05/04 01:56:06;;;;;;;3.90;2.28;;;;;;;;;;4205304;34;20106;-63
2022/05/04 01:58:32;;;;;;;5.78;2.55;;;;;;;;;;4205111;34;20110;-63
2022/05/04 02:00:58;;;;;;;3.83;2.30;;;;;;;;;;4205379;34;20226;-63
2022/05/04 02:03:25;;;;;;;5.90;2.25;;;;;;;;;;4205456;34;20129;-63
2022/05/04 02:05:51;;;;;;;5.32;2.40;;;;;;;;;;4205206;34;20102;-62
2022/05/04 02:08:17;;;;;;;3.72;2.12;;;;;;;;;;4215563;34;20189;-62
2022/05/04 02:10:43;;;;;;;4.22;2.35;;;;;;;;;;4205088;34;20114;-63
2022/05/04 02:13:09;;;;;;;6.80;2.62;;;;;;;;;;4205325;34;20117;-63
2022/05/04 02:15:35;;;;;;;3.55;2.10;;;;;;;;;;4205080;34;20244;-63
2022/05/04 02:18:02;;;;;;;6.70;2.85;;;;;;;;;;4205461;34;20117;-64
2022/05/04 02:20:28;;;;;;;3.53;2.20;;;;;;;;;;4205087;34;20098;-63
2022/05/04 02:22:53;;;;;;;3.72;2.22;;;;;;;;;;4205007;34;20144;-64
2022/05/04 02:25:19;;;;;;;4.35;2.25;;;;;;;;;;4205122;34;20263;-63
2022/05/04 02:27:45;;;;;;;3.20;2.42;;;;;;;;;;4205242;34;20203;-63
2022/05/04 02:30:13;;;;;;;4.45;2.60;;;;;;;;;;4204627;34;20109;-62
2022/05/04 02:32:39;;;;;;;3.62;2.37;;;;;;;;;;4202027;34;20121;-61
2022/05/04 02:38:00;;;;;;;3.03;2.00;;;;;;;;;;4205171;34;20130;-61
2022/05/04 02:40:26;;;;;;;6.07;2.08;;;;;;;;;;4203646;34;20122;-61
2022/05/04 02:42:53;;;;;;;5.03;2.30;;;;;;;;;;4199159;34;20308;-61
2022/05/04 02:45:19;;;;;;;4.65;2.42;;;;;;;;;;4203515;34;20136;-61
2022/05/04 02:47:45;;;;;;;8.13;2.37;;;;;;;;;;4203804;34;20106;-62
2022/05/04 02:50:11;;;;;;;3.95;2.12;;;;;;;;;;4203611;34;20106;-61
2022/05/04 02:52:37;;;;;;;8.10;2.33;;;;;;;;;;4203626;34;20125;-61
2022/05/04 02:55:04;;;;;;;10.63;2.33;;;;;;;;;;4203651;34;20137;-59
2022/05/04 02:57:30;;;;;;;5.65;2.10;;;;;;;;;;4202196;34;20149;-61
2022/05/04 02:59:56;;;;;;;10.15;2.53;;;;;;;;;;4203436;34;20141;-60
2022/05/04 03:02:28;;;;;;;6.82;2.28;;;;;;;;;;4201389;34;20121;-58
2022/05/04 03:04:56;;;;;;;3.20;2.40;;;;;;;;;;4204239;34;20105;-60
2022/05/04 03:07:22;;;;;;;3.30;2.25;;;;;;;;;;4203851;34;20116;-59
2022/05/04 03:09:48;;;;;;;5.07;2.40;;;;;;;;;;4203810;34;20113;-59
2022/05/04 03:12:14;;;;;;;5.18;2.70;;;;;;;;;;4204446;34;20193;-60
2022/05/04 03:14:40;;;;;;;6.25;2.53;;;;;;;;;;4204574;34;20232;-60
2022/05/04 03:17:06;;;;;;;13.55;4.85;;;;;;;;;;4204666;34;20101;-59
2022/05/04 03:19:32;;;;;;;4.15;2.35;;;;;;;;;;4204734;34;20129;-59
2022/05/04 03:21:58;;;;;;;4.87;2.40;;;;;;;;;;4204553;34;20120;-59
2022/05/04 03:24:24;;;;;;;5.68;2.40;;;;;;;;;;4204395;34;20101;-59
2022/05/04 03:26:50;;;;;;;5.30;2.15;;;;;;;;;;4204470;34;20142;-60
2022/05/04 03:29:16;;;;;;;5.47;2.20;;;;;;;;;;4204563;34;20642;-60
2022/05/04 03:31:42;;;;;;;7.87;2.83;;;;;;;;;;4204569;34;20200;-61
2022/05/04 03:34:08;;;;;;;11.00;2.80;;;;;;;;;;4202170;34;20106;-59
2022/05/04 03:36:37;;;;;;;6.78;2.75;;;;;;;;;;4203343;34;20110;-62
2022/05/04 03:39:04;;;;;;;6.12;2.40;;;;;;;;;;4202544;34;20110;-61
2022/05/04 03:41:30;;;;;;;4.32;2.50;;;;;;;;;;4203728;34;20093;-60
2022/05/04 03:43:56;;;;;;;5.82;2.60;;;;;;;;;;4203723;34;20109;-61
2022/05/04 03:46:26;;;;;;;5.30;2.37;;;;;;;;;;4203690;34;20096;-61
2022/05/04 03:48:58;;;;;;;8.20;2.03;;;;;;;;;;4203748;34;20462;-61
2022/05/04 03:51:24;;;;;;;9.25;2.95;;;;;;;;;;4203886;34;20104;-61
2022/05/04 03:53:53;;;;;;;5.45;2.83;;;;;;;;;;4203786;34;20185;-60
2022/05/04 03:56:19;;;;;;;4.75;2.30;;;;;;;;;;4202758;34;20129;-61
2022/05/04 03:58:45;;;;;;;4.80;2.00;;;;;;;;;;4202623;34;20595;-61
2022/05/04 04:01:13;;;;;;;6.62;2.50;;;;;;;;;;4202273;34;20121;-62
2022/05/04 04:03:39;;;;;;;3.62;2.10;;;;;;;;;;4189868;34;20106;-61
2022/05/04 04:06:05;;;;;;;9.20;3.03;;;;;;;;;;4202497;34;20503;-62
2022/05/04 04:08:32;;;;;;;15.32;4.18;;;;;;;;;;4203445;34;20097;-62
2022/05/04 04:10:58;;;;;;;5.45;2.25;;;;;;;;;;4203488;34;20109;-59
2022/05/04 04:13:24;;;;;;;9.73;1.95;;;;;;;;;;4203307;34;20113;-61
2022/05/04 04:15:51;;;;;;;5.37;2.15;;;;;;;;;;4203492;34;20260;-61
2022/05/04 04:18:21;;;;;;;6.07;3.28;;;;;;;;;;4203564;34;20466;-62
2022/05/04 04:23:33;;;;;;;11.43;2.22;;;;;;;;;;4203384;34;20098;-61
2022/05/04 04:25:59;;;;;;;5.57;2.20;;;;;;;;;;4203235;34;20112;-61
2022/05/04 04:28:26;;;;;;;9.23;2.60;;;;;;;;;;4203362;34;20132;-61
2022/05/04 04:30:52;;;;;;;6.10;2.55;;;;;;;;;;4203333;34;20209;-60
2022/05/04 04:33:18;;;;;;;6.93;2.30;;;;;;;;;;4213583;34;20117;-63
2022/05/04 04:35:44;;;;;;;2.42;1.80;;;;;;;;;;4203865;34;20559;-62
2022/05/04 04:38:10;;;;;;;6.32;2.30;;;;;;;;;;4205298;34;20788;-62
2022/05/04 04:40:36;;;;;;;4.72;2.28;;;;;;;;;;4206160;34;20203;-62
2022/05/04 04:43:02;;;;;;;5.55;2.30;;;;;;;;;;4206278;34;20802;-62
2022/05/04 04:45:29;;;;;;;3.47;2.37;;;;;;;;;;4205798;34;20117;-63
2022/05/04 04:47:56;;;;;;;6.90;2.17;;;;;;;;;;4206171;34;20121;-62
2022/05/04 04:50:25;;;;;;;5.18;2.53;;;;;;;;;;4205730;34;20192;-62
2022/05/04 04:52:51;;;;;;;6.90;2.20;;;;;;;;;;4205936;34;20121;-62
2022/05/04 04:55:17;;;;;;;5.70;2.30;;;;;;;;;;4205757;34;20109;-61
2022/05/04 04:57:43;;;;;;;8.40;2.53;;;;;;;;;;4205890;34;20118;-62
2022/05/04 05:00:10;;;;;;;5.25;2.50;;;;;;;;;;4205795;34;20125;-62
2022/05/04 05:02:36;;;;;;;8.68;2.55;;;;;;;;;;4205992;34;20110;-62
2022/05/04 05:05:03;;;;;;;5.00;2.55;;;;;;;;;;4205654;34;20121;-62
2022/05/04 05:07:29;;;;;;;10.38;2.80;;;;;;;;;;4206074;34;20098;-62
2022/05/04 05:09:56;;;;;;;10.27;2.47;;;;;;;;;;4205739;34;20488;-62
2022/05/04 05:12:22;;;;;;;7.22;2.42;;;;;;;;;;4205754;34;20109;-62
2022/05/04 05:17:34;;;;;;;7.05;2.62;;;;;;;;;;4214103;34;20193;-62
2022/05/04 05:20:00;;;;;;;3.03;2.33;;;;;;;;;;4215697;34;20129;-62
2022/05/04 05:22:26;;;;;;;6.28;2.30;;;;;;;;;;4205731;34;20121;-61
2022/05/04 05:24:52;;;;;;;4.60;2.55;;;;;;;;;;4205745;34;20117;-61
2022/05/04 05:27:18;;;;;;;5.80;2.20;;;;;;;;;;4205657;34;20114;-61
2022/05/04 05:29:44;;;;;;;7.97;2.28;;;;;;;;;;4205589;34;20526;-59
2022/05/04 05:32:10;;;;;;;7.72;2.47;;;;;;;;;;4205541;34;20219;-60
2022/05/04 05:34:36;;;;;;;10.88;2.40;;;;;;;;;;4205345;34;20612;-60
2022/05/04 05:37:02;;;;;;;6.97;2.15;;;;;;;;;;4205615;34;20113;-61
2022/05/04 05:39:28;;;;;;;7.75;2.33;;;;;;;;;;4205566;34;20110;-60
2022/05/04 05:41:54;;;;;;;5.70;2.42;;;;;;;;;;4205419;34;20200;-59
2022/05/04 05:44:20;;;;;;;9.73;2.53;;;;;;;;;;4205361;34;20120;-62
2022/05/04 05:46:46;;;;;;;4.87;2.00;;;;;;;;;;4205678;34;20201;-62
2022/05/04 05:49:12;;;;;;;5.93;2.50;;;;;;;;;;4205106;34;20138;-62
2022/05/04 05:51:38;;;;;;;9.30;2.55;;;;;;;;;;4205355;34;20086;-61
2022/05/04 05:54:04;;;;;;;6.45;2.08;;;;;;;;;;4205551;34;20125;-61
2022/05/04 05:56:31;;;;;;;32.17;4.40;;;;;;;;;;4205234;34;20112;-61
2022/05/04 05:58:57;;;;;;;5.43;2.28;;;;;;;;;;4205379;34;20103;-61
2022/05/04 06:01:23;;;;;;;5.10;2.47;;;;;;;;;;4205341;34;20169;-61
2022/05/04 06:03:52;;;;;;;7.07;2.90;;;;;;;;;;4205272;34;20116;-63
2022/05/04 06:06:19;;;;;;;4.68;2.20;;;;;;;;;;4205091;34;20121;-61
2022/05/04 06:08:45;;;;;;;2.80;1.85;;;;;;;;;;4205370;34;20221;-66
2022/05/04 06:11:11;;;;;;;3.50;2.50;;;;;;;;;;4215375;34;20561;-61
2022/05/04 06:13:37;;;;;;;10.95;2.97;;;;;;;;;;4205323;34;20122;-61
2022/05/04 06:16:03;;;;;;;6.03;2.45;;;;;;;;;;4205205;34;20121;-61
2022/05/04 06:18:29;;;;;;;7.75;2.45;;;;;;;;;;4205074;34;20138;-61
2022/05/04 06:20:55;;;;;;;4.57;2.37;;;;;;;;;;4205397;34;20113;-61
2022/05/04 06:23:21;;;;;;;3.33;1.95;;;;;;;;;;4215383;34;20125;-61
2022/05/04 06:25:47;;;;;;;5.78;2.70;;;;;;;;;;4205095;34;20197;-61
2022/05/04 06:28:13;;;;;;;6.43;2.28;;;;;;;;;;4205469;34;20102;-62
2022/05/04 06:36:08;;;;;;;6.03;2.28;;;;;;;;;;4205561;34;20101;-63
2022/05/04 06:38:34;;;;;;;3.95;2.47;;;;;;;;;;4205009;34;20113;-63
2022/05/04 06:41:00;;;;;;;7.60;2.42;;;;;;;;;;4204823;34;20213;-63
2022/05/04 06:43:27;;;;;;;6.78;2.72;;;;;;;;;;4205076;34;20546;-63
2022/05/04 06:45:53;;;;;;;6.22;2.15;;;;;;;;;;4204752;34;20219;-63
2022/05/04 06:48:19;;;;;;;6.60;2.50;;;;;;;;;;4204991;34;20542;-63
2022/05/04 06:50:45;;;;;;;14.70;2.67;;;;;;;;;;4204837;34;20121;-63
2022/05/04 06:53:11;;;;;;;6.85;2.37;;;;;;;;;;4204867;34;20127;-63
2022/05/04 06:55:38;;;;;;;8.68;2.05;;;;;;;;;;4204880;34;20202;-63
2022/05/04 06:58:04;;;;;;;4.90;2.28;;;;;;;;;;4204919;34;20114;-63
2022/05/04 07:00:30;;;;;;;3.12;2.05;;;;;;;;;;4204061;34;20112;-63
2022/05/04 07:02:57;;;;;;;7.03;2.55;;;;;;;;;;4204753;34;20129;-62
2022/05/04 07:05:23;;;;;;;2.30;1.83;;;;;;;;;;4204718;34;20446;-64
2022/05/04 07:07:49;;;;;;;9.93;2.65;;;;;;;;;;4205045;34;20113;-65
2022/05/04 07:10:15;;;;;;;3.67;1.90;;;;;;;;;;4204627;34;20097;-62
2022/05/04 07:12:41;;;;;;;1.40;1.30;;;;;;;;;;4204761;34;20152;-63
2022/05/04 07:15:07;;;;;;;1.25;1.15;;;;;;;;;;4204783;34;20122;-65
2022/05/04 07:17:33;;;;;;;2.47;1.33;;;;;;;;;;4204793;34;20130;-63
2022/05/04 07:19:59;;;;;;;2.67;1.58;;;;;;;;;;4204545;34;20627;-63
2022/05/04 07:22:25;;;;;;;1.65;1.40;;;;;;;;;;4204624;34;20474;-63
2022/05/04 07:24:51;;;;;;;1.48;1.37;;;;;;;;;;4204427;34;20114;-62
2022/05/04 07:27:18;;;;;;;1.98;1.60;;;;;;;;;;4204461;34;20121;-63
2022/05/04 07:29:45;;;;;;;1.77;1.67;;;;;;;;;;4204592;34;20188;-62
2022/05/04 07:32:11;;;;;;;1.92;1.50;;;;;;;;;;4204500;34;20152;-63
2022/05/04 07:34:37;;;;;;;2.90;2.00;;;;;;;;;;4204666;34;20490;-63
2022/05/04 07:37:04;;;;;;;2.22;1.48;;;;;;;;;;4204612;34;20186;-63
2022/05/04 07:42:26;;;;;;;9.52;1.90;;;;;;;;;;4204491;34;20097;-62
2022/05/04 07:44:58;;;;;;;2.55;1.60;;;;;;;;;;4204375;34;20133;-63
2022/05/04 07:47:32;;;;;;;10.00;2.45;;;;;;;;;;4204276;34;20106;-61
2022/05/04 07:49:58;;;;;;;1.60;1.50;;;;;;;;;;4204398;34;20229;-64
2022/05/04 07:52:25;;;;;;;10.45;2.53;;;;;;;;;;4204302;34;20116;-61
2022/05/04 07:54:51;;;;;;;6.03;3.45;;;;;;;;;;4204420;34;20106;-64
2022/05/04 07:57:17;;;;;;;13.90;2.95;;;;;;;;;;4204183;34;20229;-62
2022/05/04 08:04:16;;;;;;;5.97;2.53;;;;;;;;;;4214353;34;20279;-62
2022/05/04 08:05:14;;;;;;;5.30;2.95;;;;;;;;;;4204101;34;20125;-61
2022/05/04 08:07:39;;;;;;;9.18;3.12;;;;;;;;;;4204282;34;20126;-61
2022/05/04 08:10:06;;;;;;;10.02;2.53;;;;;;;;;;4204164;34;20188;-61
2022/05/04 08:12:33;;;;;;;5.12;2.45;;;;;;;;;;4203959;34;20150;-60
2022/05/04 08:14:59;;;;;;;10.27;3.08;;;;;;;;;;4204020;34;20122;-60
2022/05/04 08:17:27;;;;;;;6.90;2.90;;;;;;;;;;4203932;34;20089;-61
2022/05/04 08:19:53;;;;;;;13.02;3.55;;;;;;;;;;4204109;34;20559;-61
2022/05/04 08:22:19;;;;;;;4.72;2.42;;;;;;;;;;4204313;34;20121;-61
2022/05/04 08:24:45;;;;;;;3.72;2.42;;;;;;;;;;4203959;34;20113;-59
2022/05/04 08:27:11;;;;;;;7.53;2.87;;;;;;;;;;4204077;34;20005;-61
2022/05/04 08:29:38;;;;;;;8.95;2.87;;;;;;;;;;4203978;34;20129;-61
2022/05/04 08:32:04;;;;;;;6.37;2.75;;;;;;;;;;4203703;34;20110;-62
2022/05/04 08:34:30;;;;;;;10.40;2.97;;;;;;;;;;4204194;34;20125;-62
2022/05/04 08:36:56;;;;;;;6.68;2.30;;;;;;;;;;4203821;34;20221;-61
2022/05/04 08:39:22;;;;;;;2.92;2.00;;;;;;;;;;4203995;34;20189;-62
2022/05/04 08:41:48;;;;;;;6.50;2.37;;;;;;;;;;4203821;34;20125;-62
2022/05/04 08:44:14;;;;;;;1.37;1.27;;;;;;;;;;4214198;34;20105;-62
2022/05/04 08:46:42;;;;;;;13.35;2.37;;;;;;;;;;4213820;34;20152;-63
2022/05/04 08:49:11;;;;;;;4.87;1.85;;;;;;;;;;4203389;34;20574;-63
2022/05/04 08:51:37;;;;;;;6.37;1.75;;;;;;;;;;4203838;34;20125;-62
2022/05/04 08:54:07;;;;;;;7.68;2.10;;;;;;;;;;4203516;34;20094;-62
2022/05/04 08:56:34;;;;;;;1.52;1.42;;;;;;;;;;4203967;34;20098;-63
2022/05/04 08:59:04;;;;;;;5.85;2.62;;;;;;;;;;4203634;34;20217;-63
2022/05/04 09:01:48;;;;;;;8.63;1.70;;;;;;;;;;4190982;34;20469;-63
2022/05/04 09:04:14;;;;;;;1.23;1.20;;;;;;;;;;4203437;34;20192;-63
2022/05/04 09:06:43;;;;;;;1.30;1.20;;;;;;;;;;4203592;34;20133;-63
2022/05/04 09:09:13;;;;;;;2.28;2.03;;;;;;;;;;4203551;34;20122;-63
2022/05/04 09:11:45;;;;;;;2.92;1.87;;;;;;;;;;4203542;34;20457;-62
2022/05/04 09:14:20;;;;;;;2.37;1.98;;;;;;;;;;4202988;34;20302;-61
2022/05/04 09:16:47;;;;;;;10.52;3.50;;;;;;;;;;4203489;34;20114;-62
2022/05/04 09:19:15;;;;;;;9.38;2.95;;;;;;;;;;4203292;34;20182;-59
2022/05/04 09:21:41;;;;;;;5.47;2.50;;;;;;;;;;4213745;34;20110;-63
2022/05/04 09:24:08;;;;;;;8.57;2.75;;;;;;;;;;4204764;34;20109;-62
2022/05/04 09:26:43;;;;;;;5.05;2.58;;;;;;;;;;4205605;34;20105;-63
2022/05/04 09:29:12;;;;;;;6.90;2.28;;;;;;;;;;4205693;34;20118;-63
2022/05/04 09:31:41;;;;;;;10.07;2.10;;;;;;;;;;4205585;34;20106;-65
2022/05/04 09:34:09;;;;;;;7.30;3.05;;;;;;;;;;4192659;34;20108;-63
2022/05/04 09:45:13;;;;;;;4.95;2.35;;;;;;;;;;4205331;34;20098;-63
2022/05/04 09:47:41;;;;;;;5.93;3.37;;;;;;;;;;4205220;34;20225;-63
2022/05/04 09:50:09;;;;;;;6.12;3.55;;;;;;;;;;4205357;34;20167;-63
2022/05/04 09:52:49;;;;;;;4.03;2.62;;;;;;;;;;4205428;34;20113;-65
2022/05/04 09:55:24;;;;;;;7.57;2.20;;;;;;;;;;4205446;34;20110;-65
2022/05/04 09:57:50;;;;;;;12.15;2.83;;;;;;;;;;4215308;34;20133;-63
2022/05/04 10:00:19;;;;;;;7.37;2.53;;;;;;;;;;4205393;34;20539;-62
2022/05/04 10:02:46;;;;;;;18.52;3.20;;;;;;;;;;4205235;34;20562;-65
2022/05/04 10:05:13;;;;;;;4.28;2.22;;;;;;;;;;4192788;34;20125;-64
2022/05/04 10:07:41;;;;;;;5.75;3.15;;;;;;;;;;4205443;34;20097;-64
2022/05/04 10:10:09;;;;;;;11.63;3.37;;;;;;;;;;4205602;34;20209;-64
2022/05/04 10:12:39;;;;;;;6.68;2.92;;;;;;;;;;4205213;34;20120;-64
2022/05/04 10:15:16;;;;;;;7.00;2.75;;;;;;;;;;4205197;34;20119;-64
2022/05/04 10:18:24;;;;;;;11.02;3.37;;;;;;;;;;4205448;34;20106;-64
2022/05/04 10:21:06;;;;;;;9.15;2.67;;;;;;;;;;4163931;34;20125;-63
2022/05/04 10:23:36;;;;;;;5.28;2.90;;;;;;;;;;4203638;34;20537;-64
2022/05/04 10:26:04;;;;;;;6.03;2.90;;;;;;;;;;4215269;34;20196;-63
2022/05/04 10:28:36;;;;;;;3.92;2.53;;;;;;;;;;4205160;34;20144;-62
2022/05/04 10:31:07;;;;;;;9.10;3.30;;;;;;;;;;4205393;34;20126;-62
2022/05/04 10:33:34;;;;;;;7.97;3.92;;;;;;;;;;4203042;34;20885;-63
2022/05/04 10:36:20;;;;;;;8.75;3.08;;;;;;;;;;4196839;34;20098;-62
2022/05/04 10:38:51;;;;;;;4.18;2.58;;;;;;;;;;4204549;34;20594;-63
2022/05/04 10:41:36;;;;;;;7.87;2.85;;;;;;;;;;4204801;34;20190;-63
2022/05/04 10:44:02;;;;;;;9.82;4.45;;;;;;;;;;4190610;34;20177;-62
2022/05/04 10:46:30;;;;;;;7.28;3.00;;;;;;;;;;4191064;34;20117;-64
2022/05/04 10:48:58;;;;;;;5.50;2.70;;;;;;;;;;4190941;34;20121;-63
2022/05/04 10:51:27;;;;;;;6.43;2.87;;;;;;;;;;4198720;34;20117;-63
2022/05/04 10:53:59;;;;;;;9.82;2.80;;;;;;;;;;4204600;34;20526;-64
2022/05/04 10:56:27;;;;;;;4.62;2.60;;;;;;;;;;4204914;34;20117;-62
2022/05/04 10:58:59;;;;;;;4.62;3.10;;;;;;;;;;4202801;34;20709;-64
2022/05/04 11:01:28;;;;;;;4.45;2.40;;;;;;;;;;4204534;34;20134;-62
2022/05/04 11:04:06;;;;;;;10.23;2.78;;;;;;;;;;4203699;34;20196;-64
2022/05/04 11:06:37;;;;;;;16.90;3.05;;;;;;;;;;4204576;34;20216;-64
2022/05/04 11:09:14;;;;;;;9.75;3.20;;;;;;;;;;4204511;34;20121;-63
2022/05/04 11:11:45;;;;;;;8.68;2.92;;;;;;;;;;4214719;34;20110;-63
2022/05/04 11:14:15;;;;;;;8.98;3.25;;;;;;;;;;4204601;34;20610;-63
2022/05/04 11:16:42;;;;;;;10.15;3.37;;;;;;;;;;4204602;34;20118;-63
2022/05/04 11:19:11;;;;;;;7.43;3.42;;;;;;;;;;4204517;34;20226;-63
2022/05/04 11:21:37;;;;;;;7.68;3.62;;;;;;;;;;4191874;34;20230;-61
2022/05/04 11:24:06;;;;;;;7.28;3.22;;;;;;;;;;4191848;34;20149;-63
2022/05/04 11:26:34;;;;;;;6.25;3.62;;;;;;;;;;4204430;34;20144;-61
2022/05/04 11:29:00;;;;;;;6.53;3.33;;;;;;;;;;4204657;34;20225;-62
2022/05/04 11:31:26;;;;;;;12.05;3.05;;;;;;;;;;4204551;34;20113;-61
2022/05/04 11:33:53;;;;;;;13.45;2.75;;;;;;;;;;4204264;34;20133;-61
2022/05/04 11:36:21;;;;;;;17.00;4.22;;;;;;;;;;4204505;34;20108;-60
2022/05/04 11:38:49;;;;;;;5.53;3.35;;;;;;;;;;4204448;34;20519;-61
2022/05/04 11:41:15;;;;;;;5.80;3.30;;;;;;;;;;4204444;34;20217;-61
2022/05/04 11:43:42;;;;;;;8.15;3.80;;;;;;;;;;4204529;34;20103;-60
2022/05/04 11:46:12;;;;;;;8.30;3.47;;;;;;;;;;4203775;34;20592;-61
2022/05/04 11:48:42;;;;;;;10.13;3.33;;;;;;;;;;4191792;34;20257;-61
2022/05/04 11:51:09;;;;;;;11.38;3.40;;;;;;;;;;4214442;34;20201;-61
2022/05/04 11:53:35;;;;;;;11.82;4.68;;;;;;;;;;4191784;34;20514;-61
2022/05/04 11:56:05;;;;;;;8.90;3.70;;;;;;;;;;4204294;34;20120;-61
2022/05/04 11:58:33;;;;;;;8.52;3.83;;;;;;;;;;4203032;34;20156;-61
2022/05/04 12:01:00;;;;;;;14.43;4.10;;;;;;;;;;4203930;34;20089;-61
2022/05/04 12:03:26;;;;;;;10.13;3.70;;;;;;;;;;4224080;33;20338;-61
2022/05/04 12:05:53;;;;;;;7.32;3.25;;;;;;;;;;4217940;34;20537;-60
2022/05/04 12:08:21;;;;;;;12.68;4.03;;;;;;;;;;4204863;34;20109;-61
2022/05/04 12:10:49;;;;;;;5.62;3.42;;;;;;;;;;4204921;34;20126;-60
2022/05/04 12:13:15;;;;;;;4.03;2.60;;;;;;;;;;4217787;33;20117;-61
2022/05/04 12:15:42;;;;;;;10.82;3.35;;;;;;;;;;4217731;34;20211;-60
2022/05/04 12:18:10;;;;;;;5.90;2.87;;;;;;;;;;4194044;34;20505;-61
2022/05/04 12:20:36;;;;;;;3.92;2.80;;;;;;;;;;4203780;34;20132;-62
2022/05/04 12:23:03;;;;;;;13.20;3.28;;;;;;;;;;4203505;34;20335;-62
2022/05/04 12:25:29;;;;;;;5.12;3.05;;;;;;;;;;4203664;34;20110;-63
2022/05/04 12:27:56;;;;;;;5.10;2.70;;;;;;;;;;4199112;34;20541;-62
2022/05/04 12:33:10;;;;;;;14.80;3.78;;;;;;;;;;4215041;33;20121;-60
2022/05/04 12:35:46;;;;;;;9.65;3.30;;;;;;;;;;4191364;34;20106;-61
2022/05/04 12:38:19;;;;;;;8.45;3.10;;;;;;;;;;4204567;34;20717;-60
2022/05/04 12:40:47;;;;;;;9.57;3.72;;;;;;;;;;4204148;34;20097;-61
2022/05/04 12:43:14;;;;;;;9.73;4.18;;;;;;;;;;4204081;34;20114;-61
2022/05/04 12:45:40;;;;;;;11.70;3.72;;;;;;;;;;4191125;34;20129;-61
2022/05/04 12:48:09;;;;;;;11.23;4.20;;;;;;;;;;4203784;34;20478;-61
2022/05/04 12:50:36;;;;;;;9.43;3.60;;;;;;;;;;4203543;34;20133;-60
2022/05/04 12:53:04;;;;;;;6.20;2.95;;;;;;;;;;4203780;34;20118;-60
2022/05/04 12:58:16;;;;;;;9.88;3.65;;;;;;;;;;4204635;34;20110;-61
2022/05/04 13:00:43;;;;;;;14.57;3.58;;;;;;;;;;4205097;34;20108;-59
2022/05/04 13:03:12;;;;;;;5.78;3.33;;;;;;;;;;4205819;34;20128;-62
2022/05/04 13:05:39;;;;;;;8.75;3.90;;;;;;;;;;4193234;34;20121;-63
2022/05/04 13:08:06;;;;;;;9.43;3.47;;;;;;;;;;4205397;34;20119;-60
2022/05/04 13:10:32;;;;;;;4.05;2.87;;;;;;;;;;4205577;34;20129;-61
2022/05/04 13:12:59;;;;;;;10.32;4.75;;;;;;;;;;4205598;34;20113;-60
2022/05/04 13:15:25;;;;;;;10.48;4.28;;;;;;;;;;4205816;34;20090;-62
2022/05/04 13:17:51;;;;;;;7.25;3.70;;;;;;;;;;4205673;34;20197;-60
2022/05/04 13:20:19;;;;;;;5.50;3.75;;;;;;;;;;4215779;34;20100;-61
2022/05/04 13:22:45;;;;;;;4.25;3.12;;;;;;;;;;4215751;34;20141;-61
2022/05/04 13:25:11;;;;;;;6.53;3.55;;;;;;;;;;4205805;34;20125;-60
2022/05/04 13:27:38;;;;;;;7.80;3.92;;;;;;;;;;4205808;34;20114;-61
2022/05/04 13:30:05;;;;;;;6.45;3.33;;;;;;;;;;4215672;34;20129;-61
2022/05/04 13:32:31;;;;;;;13.65;3.90;;;;;;;;;;4215492;34;20142;-60
2022/05/04 13:34:57;;;;;;;6.18;3.92;;;;;;;;;;4205548;34;20125;-59
2022/05/04 13:37:23;;;;;;;5.25;3.10;;;;;;;;;;4205723;34;20121;-63
2022/05/04 13:39:50;;;;;;;10.25;3.85;;;;;;;;;;4205479;34;20665;-63
2022/05/04 13:42:16;;;;;;;5.93;3.42;;;;;;;;;;4205221;34;20121;-64
2022/05/04 13:44:42;;;;;;;9.13;3.70;;;;;;;;;;4203963;34;20198;-64
2022/05/04 13:47:11;;;;;;;7.37;3.17;;;;;;;;;;4205244;34;20542;-63
2022/05/04 13:49:37;;;;;;;5.30;3.25;;;;;;;;;;4205462;34;20104;-63
2022/05/04 13:54:51;;;;;;;6.00;3.60;;;;;;;;;;4205383;34;20121;-64
2022/05/04 13:57:17;;;;;;;5.78;3.62;;;;;;;;;;4192717;34;20129;-67
2022/05/04 13:59:44;;;;;;;9.07;3.90;;;;;;;;;;4205248;34;20121;-61
2022/05/04 14:02:10;;;;;;;6.68;3.55;;;;;;;;;;4203383;34;20250;-62
2022/05/04 14:04:40;;;;;;;5.95;3.97;;;;;;;;;;4205059;34;20114;-61
2022/05/04 14:07:06;;;;;;;7.62;3.97;;;;;;;;;;4194608;33;20129;-62
2022/05/04 14:09:32;;;;;;;6.05;4.18;;;;;;;;;;4211229;34;20213;-64
2022/05/04 14:12:03;;;;;;;13.68;4.12;;;;;;;;;;4205915;33;20116;-62
2022/05/04 14:17:13;;;;;;;15.85;4.32;;;;;;;;;;4227954;33;20479;-62
2022/05/04 14:19:39;;;;;;;14.87;4.65;;;;;;;;;;4219180;34;20186;-61
2022/05/04 14:22:05;;;;;;;11.73;3.58;;;;;;;;;;4218917;33;20225;-62
2022/05/04 14:24:31;;;;;;;12.15;3.42;;;;;;;;;;4229662;33;20506;-63
2022/05/04 14:26:57;;;;;;;11.07;3.60;;;;;;;;;;4218827;33;20117;-62
2022/05/04 14:29:23;;;;;;;5.28;3.40;;;;;;;;;;4219530;34;20128;-62
2022/05/04 14:31:50;;;;;;;10.95;3.40;;;;;;;;;;4218941;34;20568;-61
2022/05/04 14:34:16;;;;;;;9.73;2.80;;;;;;;;;;4218547;34;20098;-62
2022/05/04 14:36:42;;;;;;;7.40;3.15;;;;;;;;;;4229088;33;20110;-62
2022/05/04 14:39:09;;;;;;;8.18;2.87;;;;;;;;;;4218344;33;20090;-63
2022/05/04 14:41:35;;;;;;;3.83;2.80;;;;;;;;;;4218695;34;20097;-63
2022/05/04 14:44:01;;;;;;;4.80;2.70;;;;;;;;;;4208448;33;20113;-63
2022/05/04 14:46:28;;;;;;;3.70;3.12;;;;;;;;;;4204640;34;20157;-63
2022/05/04 14:48:54;;;;;;;6.45;3.00;;;;;;;;;;4191434;34;20209;-64
2022/05/04 14:51:21;;;;;;;6.40;2.78;;;;;;;;;;4203490;34;20121;-63
2022/05/04 14:53:51;;;;;;;7.85;2.90;;;;;;;;;;4204515;34;20125;-63
2022/05/04 14:56:20;;;;;;;8.15;3.10;;;;;;;;;;4210791;34;20116;-63
2022/05/04 14:58:46;;;;;;;4.90;2.58;;;;;;;;;;4218437;33;20142;-62
2022/05/04 15:01:13;;;;;;;3.72;2.80;;;;;;;;;;4205352;34;20113;-62
2022/05/04 15:06:24;;;;;;;5.93;3.08;;;;;;;;;;4218352;34;20109;-62
2022/05/04 15:08:50;;;;;;;5.85;2.95;;;;;;;;;;4218392;33;20118;-60
2022/05/04 15:11:16;;;;;;;6.45;3.12;;;;;;;;;;4213968;34;20117;-60
2022/05/04 15:13:42;;;;;;;4.45;3.83;;;;;;;;;;4205772;34;20476;-62
2022/05/04 15:16:08;;;;;;;4.90;3.47;;;;;;;;;;4228725;33;20129;-62
2022/05/04 15:18:34;;;;;;;3.70;3.15;;;;;;;;;;4218421;33;20195;-62
2022/05/04 15:21:01;;;;;;;6.47;2.92;;;;;;;;;;4217804;34;20641;-65
2022/05/04 15:23:27;;;;;;;5.85;3.08;;;;;;;;;;4218631;33;20116;-64
2022/05/04 15:25:54;;;;;;;5.07;3.92;;;;;;;;;;4205614;34;20129;-62
2022/05/04 15:28:20;;;;;;;3.92;3.30;;;;;;;;;;4218458;33;20205;-64
2022/05/04 15:30:46;;;;;;;6.60;3.37;;;;;;;;;;4218211;34;20094;-62
2022/05/04 15:33:12;;;;;;;4.00;3.30;;;;;;;;;;4205358;34;20434;-61
2022/05/04 15:35:38;;;;;;;4.47;3.40;;;;;;;;;;4218247;34;20495;-63
2022/05/04 15:38:04;;;;;;;5.37;3.50;;;;;;;;;;4218045;33;20165;-62
2022/05/04 15:40:30;;;;;;;7.95;3.42;;;;;;;;;;4217367;34;20100;-62
2022/05/04 15:42:57;;;;;;;5.97;3.95;;;;;;;;;;4218324;33;20115;-62
2022/05/04 15:45:23;;;;;;;6.25;4.60;;;;;;;;;;4218380;34;20182;-65
2022/05/04 15:47:49;;;;;;;8.02;5.15;;;;;;;;;;4205395;34;20461;-68
2022/05/04 15:50:16;;;;;;;6.40;4.60;;;;;;;;;;4205352;34;20109;-70
2022/05/04 15:52:42;;;;;;;6.47;4.65;;;;;;;;;;4218169;33;20113;-62